sensor_id;sensor_type;location;lat;lon;timestamp;P1;durP1;ratioP1;P2;durP2;ratioP2
63906;SDS011;50075;49.484;11.238;2022-11-11T00:00:29;54.38;;;14.32;;
63906;SDS011;50075;49.484;11.238;2022-11-11T00:02:55;61.28;;;14.98;;
63906;SDS011;50075;49.484;11.238;2022-11-11T00:05:21;58.10;;;14.23;;
63906;SDS011;50075;49.484;11.238;2022-11-11T00:07:46;62.13;;;15.35;;
63906;SDS011;50075;49.484;11.238;2022-11-11T00:10:12;62.47;;;15.45;;
63906;SDS011;50075;49.484;11.238;2022-11-11T00:12:37;51.40;;;14.35;;
63906;SDS011;50075;49.484;11.238;2022-11-11T00:15:03;64.47;;;15.32;;
63906;SDS011;50075;49.484;11.238;2022-11-11T00:17:28;56.00;;;14.80;;
63906;SDS011;50075;49.484;11.238;2022-11-11T00:20:12;54.33;;;14.82;;
63906;SDS011;50075;49.484;11.238;2022-11-11T00:22:56;66.72;;;16.58;;
63906;SDS011;50075;49.484;11.238;2022-11-11T00:25:40;58.03;;;15.27;;
63906;SDS011;50075;49.484;11.238;2022-11-11T00:28:05;60.40;;;15.02;;
63906;SDS011;50075;49.484;11.238;2022-11-11T00:30:31;57.67;;;14.98;;
63906;SDS011;50075;49.484;11.238;2022-11-11T00:32:57;53.35;;;13.25;;
63906;SDS011;50075;49.484;11.238;2022-11-11T00:35:22;62.08;;;14.35;;
63906;SDS011;50075;49.484;11.238;2022-11-11T00:38:07;46.58;;;12.27;;
63906;SDS011;50075;49.484;11.238;2022-11-11T00:40:56;47.22;;;12.85;;
63906;SDS011;50075;49.484;11.238;2022-11-11T00:43:22;55.80;;;13.70;;
63906;SDS011;50075;49.484;11.238;2022-11-11T00:45:47;50.42;;;12.93;;
63906;SDS011;50075;49.484;11.238;2022-11-11T00:48:12;57.05;;;13.18;;
63906;SDS011;50075;49.484;11.238;2022-11-11T00:50:56;55.13;;;14.55;;
63906;SDS011;50075;49.484;11.238;2022-11-11T00:53:26;63.15;;;14.30;;
63906;SDS011;50075;49.484;11.238;2022-11-11T00:55:53;61.53;;;14.50;;
63906;SDS011;50075;49.484;11.238;2022-11-11T00:58:21;55.97;;;13.85;;
63906;SDS011;50075;49.484;11.238;2022-11-11T01:00:47;68.30;;;15.65;;
63906;SDS011;50075;49.484;11.238;2022-11-11T01:03:18;61.17;;;13.80;;
63906;SDS011;50075;49.484;11.238;2022-11-11T01:05:43;60.65;;;13.82;;
63906;SDS011;50075;49.484;11.238;2022-11-11T01:08:09;52.90;;;13.70;;
63906;SDS011;50075;49.484;11.238;2022-11-11T01:10:35;64.05;;;15.18;;
63906;SDS011;50075;49.484;11.238;2022-11-11T01:15:42;64.72;;;14.63;;
63906;SDS011;50075;49.484;11.238;2022-11-11T01:18:10;58.80;;;14.23;;
63906;SDS011;50075;49.484;11.238;2022-11-11T01:20:37;50.40;;;13.20;;
63906;SDS011;50075;49.484;11.238;2022-11-11T01:23:04;53.80;;;13.07;;
63906;SDS011;50075;49.484;11.238;2022-11-11T01:25:33;50.58;;;13.95;;
63906;SDS011;50075;49.484;11.238;2022-11-11T01:28:03;63.15;;;15.23;;
63906;SDS011;50075;49.484;11.238;2022-11-11T01:30:30;53.03;;;13.43;;
63906;SDS011;50075;49.484;11.238;2022-11-11T01:32:57;63.67;;;14.63;;
63906;SDS011;50075;49.484;11.238;2022-11-11T01:35:23;47.72;;;13.90;;
63906;SDS011;50075;49.484;11.238;2022-11-11T01:37:48;41.63;;;12.02;;
63906;SDS011;50075;49.484;11.238;2022-11-11T01:40:14;52.58;;;12.27;;
63906;SDS011;50075;49.484;11.238;2022-11-11T01:42:46;44.92;;;12.32;;
63906;SDS011;50075;49.484;11.238;2022-11-11T01:48:25;50.75;;;11.85;;
63906;SDS011;50075;49.484;11.238;2022-11-11T01:51:44;51.60;;;12.18;;
63906;SDS011;50075;49.484;11.238;2022-11-11T01:54:03;40.85;;;11.73;;
63906;SDS011;50075;49.484;11.238;2022-11-11T01:56:32;52.00;;;12.20;;
63906;SDS011;50075;49.484;11.238;2022-11-11T01:59:02;52.92;;;11.93;;
63906;SDS011;50075;49.484;11.238;2022-11-11T02:01:33;49.25;;;12.70;;
63906;SDS011;50075;49.484;11.238;2022-11-11T02:04:00;52.15;;;12.80;;
63906;SDS011;50075;49.484;11.238;2022-11-11T02:06:46;49.75;;;12.20;;
63906;SDS011;50075;49.484;11.238;2022-11-11T02:09:17;49.67;;;12.23;;
63906;SDS011;50075;49.484;11.238;2022-11-11T02:11:45;44.33;;;12.60;;
63906;SDS011;50075;49.484;11.238;2022-11-11T02:14:30;53.33;;;12.70;;
63906;SDS011;50075;49.484;11.238;2022-11-11T02:17:04;42.55;;;11.73;;
63906;SDS011;50075;49.484;11.238;2022-11-11T02:19:38;50.03;;;12.65;;
63906;SDS011;50075;49.484;11.238;2022-11-11T02:22:10;52.03;;;11.75;;
63906;SDS011;50075;49.484;11.238;2022-11-11T02:24:41;45.03;;;11.45;;
63906;SDS011;50075;49.484;11.238;2022-11-11T02:27:11;45.60;;;11.18;;
63906;SDS011;50075;49.484;11.238;2022-11-11T02:32:05;47.63;;;12.38;;
63906;SDS011;50075;49.484;11.238;2022-11-11T02:34:31;76.55;;;16.55;;
63906;SDS011;50075;49.484;11.238;2022-11-11T02:36:57;38.42;;;10.50;;
63906;SDS011;50075;49.484;11.238;2022-11-11T02:39:25;36.47;;;10.95;;
63906;SDS011;50075;49.484;11.238;2022-11-11T02:41:51;41.60;;;11.38;;
63906;SDS011;50075;49.484;11.238;2022-11-11T02:44:23;32.03;;;10.67;;
63906;SDS011;50075;49.484;11.238;2022-11-11T02:46:49;37.88;;;10.85;;
63906;SDS011;50075;49.484;11.238;2022-11-11T02:49:14;35.22;;;10.75;;
63906;SDS011;50075;49.484;11.238;2022-11-11T02:51:40;30.48;;;10.18;;
63906;SDS011;50075;49.484;11.238;2022-11-11T02:54:05;38.30;;;10.65;;
63906;SDS011;50075;49.484;11.238;2022-11-11T02:56:31;34.13;;;10.60;;
63906;SDS011;50075;49.484;11.238;2022-11-11T02:59:14;31.55;;;10.10;;
63906;SDS011;50075;49.484;11.238;2022-11-11T03:01:40;31.65;;;10.20;;
63906;SDS011;50075;49.484;11.238;2022-11-11T03:04:05;34.40;;;10.32;;
63906;SDS011;50075;49.484;11.238;2022-11-11T03:06:31;32.95;;;9.95;;
63906;SDS011;50075;49.484;11.238;2022-11-11T03:08:56;31.60;;;10.05;;
63906;SDS011;50075;49.484;11.238;2022-11-11T03:11:22;38.50;;;10.73;;
63906;SDS011;50075;49.484;11.238;2022-11-11T03:13:54;29.52;;;9.77;;
63906;SDS011;50075;49.484;11.238;2022-11-11T03:16:20;33.40;;;9.73;;
63906;SDS011;50075;49.484;11.238;2022-11-11T03:19:04;25.10;;;8.77;;
63906;SDS011;50075;49.484;11.238;2022-11-11T03:21:29;28.83;;;9.23;;
63906;SDS011;50075;49.484;11.238;2022-11-11T03:23:55;38.28;;;9.35;;
63906;SDS011;50075;49.484;11.238;2022-11-11T03:26:20;41.08;;;10.45;;
63906;SDS011;50075;49.484;11.238;2022-11-11T03:28:45;39.35;;;9.57;;
63906;SDS011;50075;49.484;11.238;2022-11-11T03:31:11;41.00;;;10.10;;
63906;SDS011;50075;49.484;11.238;2022-11-11T03:33:36;31.05;;;9.45;;
63906;SDS011;50075;49.484;11.238;2022-11-11T03:36:02;30.83;;;9.25;;
63906;SDS011;50075;49.484;11.238;2022-11-11T03:38:28;35.72;;;9.98;;
63906;SDS011;50075;49.484;11.238;2022-11-11T03:40:54;30.85;;;9.23;;
63906;SDS011;50075;49.484;11.238;2022-11-11T03:43:21;39.95;;;10.60;;
63906;SDS011;50075;49.484;11.238;2022-11-11T03:45:48;26.48;;;8.60;;
63906;SDS011;50075;49.484;11.238;2022-11-11T03:48:14;31.30;;;9.15;;
63906;SDS011;50075;49.484;11.238;2022-11-11T03:50:40;32.55;;;10.00;;
63906;SDS011;50075;49.484;11.238;2022-11-11T03:53:06;30.38;;;9.50;;
63906;SDS011;50075;49.484;11.238;2022-11-11T03:55:31;32.58;;;9.40;;
63906;SDS011;50075;49.484;11.238;2022-11-11T03:57:57;33.20;;;8.85;;
63906;SDS011;50075;49.484;11.238;2022-11-11T04:00:23;28.35;;;8.93;;
63906;SDS011;50075;49.484;11.238;2022-11-11T04:02:50;29.27;;;8.73;;
63906;SDS011;50075;49.484;11.238;2022-11-11T04:05:35;28.40;;;8.75;;
63906;SDS011;50075;49.484;11.238;2022-11-11T04:08:20;29.23;;;8.85;;
63906;SDS011;50075;49.484;11.238;2022-11-11T04:11:05;29.00;;;8.85;;
63906;SDS011;50075;49.484;11.238;2022-11-11T04:13:34;30.48;;;8.88;;
63906;SDS011;50075;49.484;11.238;2022-11-11T04:16:18;31.02;;;8.98;;
63906;SDS011;50075;49.484;11.238;2022-11-11T04:18:44;29.90;;;8.57;;
63906;SDS011;50075;49.484;11.238;2022-11-11T04:21:28;30.08;;;9.00;;
63906;SDS011;50075;49.484;11.238;2022-11-11T04:24:13;27.33;;;8.77;;
63906;SDS011;50075;49.484;11.238;2022-11-11T04:26:59;29.02;;;8.65;;
63906;SDS011;50075;49.484;11.238;2022-11-11T04:29:26;37.72;;;8.65;;
63906;SDS011;50075;49.484;11.238;2022-11-11T04:31:52;32.08;;;8.95;;
63906;SDS011;50075;49.484;11.238;2022-11-11T04:34:42;26.30;;;8.25;;
63906;SDS011;50075;49.484;11.238;2022-11-11T04:37:09;34.88;;;8.98;;
63906;SDS011;50075;49.484;11.238;2022-11-11T04:39:35;25.13;;;8.23;;
63906;SDS011;50075;49.484;11.238;2022-11-11T04:42:19;27.73;;;8.55;;
63906;SDS011;50075;49.484;11.238;2022-11-11T04:44:45;28.83;;;8.98;;
63906;SDS011;50075;49.484;11.238;2022-11-11T04:47:29;29.83;;;8.75;;
63906;SDS011;50075;49.484;11.238;2022-11-11T04:49:54;29.17;;;9.05;;
63906;SDS011;50075;49.484;11.238;2022-11-11T04:52:19;40.03;;;10.27;;
63906;SDS011;50075;49.484;11.238;2022-11-11T04:54:51;30.63;;;9.02;;
63906;SDS011;50075;49.484;11.238;2022-11-11T04:57:42;33.38;;;9.18;;
63906;SDS011;50075;49.484;11.238;2022-11-11T05:00:13;31.58;;;8.68;;
63906;SDS011;50075;49.484;11.238;2022-11-11T05:02:40;35.30;;;9.63;;
63906;SDS011;50075;49.484;11.238;2022-11-11T05:05:24;38.55;;;9.48;;
63906;SDS011;50075;49.484;11.238;2022-11-11T05:07:50;31.33;;;8.30;;
63906;SDS011;50075;49.484;11.238;2022-11-11T05:10:34;31.05;;;8.88;;
63906;SDS011;50075;49.484;11.238;2022-11-11T05:13:00;34.40;;;8.52;;
63906;SDS011;50075;49.484;11.238;2022-11-11T05:15:45;28.73;;;8.27;;
63906;SDS011;50075;49.484;11.238;2022-11-11T05:18:29;41.97;;;9.45;;
63906;SDS011;50075;49.484;11.238;2022-11-11T05:21:24;28.17;;;7.75;;
63906;SDS011;50075;49.484;11.238;2022-11-11T05:23:52;31.08;;;8.40;;
63906;SDS011;50075;49.484;11.238;2022-11-11T05:26:36;31.23;;;8.38;;
63906;SDS011;50075;49.484;11.238;2022-11-11T05:29:01;28.17;;;7.82;;
63906;SDS011;50075;49.484;11.238;2022-11-11T05:31:27;30.85;;;8.38;;
63906;SDS011;50075;49.484;11.238;2022-11-11T05:33:53;26.58;;;7.90;;
63906;SDS011;50075;49.484;11.238;2022-11-11T05:36:18;32.35;;;8.75;;
63906;SDS011;50075;49.484;11.238;2022-11-11T05:38:44;37.58;;;11.35;;
63906;SDS011;50075;49.484;11.238;2022-11-11T05:41:09;37.78;;;10.98;;
63906;SDS011;50075;49.484;11.238;2022-11-11T05:43:34;37.70;;;10.68;;
63906;SDS011;50075;49.484;11.238;2022-11-11T05:46:00;33.45;;;10.52;;
63906;SDS011;50075;49.484;11.238;2022-11-11T05:48:25;28.85;;;9.23;;
63906;SDS011;50075;49.484;11.238;2022-11-11T05:50:50;40.50;;;11.07;;
63906;SDS011;50075;49.484;11.238;2022-11-11T05:53:16;30.88;;;8.80;;
63906;SDS011;50075;49.484;11.238;2022-11-11T05:55:48;39.13;;;10.00;;
63906;SDS011;50075;49.484;11.238;2022-11-11T05:58:16;30.70;;;8.80;;
63906;SDS011;50075;49.484;11.238;2022-11-11T06:00:41;29.50;;;8.52;;
63906;SDS011;50075;49.484;11.238;2022-11-11T06:03:07;34.25;;;8.82;;
63906;SDS011;50075;49.484;11.238;2022-11-11T06:05:34;34.00;;;9.68;;
63906;SDS011;50075;49.484;11.238;2022-11-11T06:08:00;38.15;;;9.88;;
63906;SDS011;50075;49.484;11.238;2022-11-11T06:10:25;28.55;;;9.07;;
63906;SDS011;50075;49.484;11.238;2022-11-11T06:12:57;33.00;;;9.68;;
63906;SDS011;50075;49.484;11.238;2022-11-11T06:15:26;29.60;;;8.90;;
63906;SDS011;50075;49.484;11.238;2022-11-11T06:18:02;27.75;;;8.60;;
63906;SDS011;50075;49.484;11.238;2022-11-11T06:20:28;34.75;;;9.57;;
63906;SDS011;50075;49.484;11.238;2022-11-11T06:22:53;31.60;;;9.80;;
63906;SDS011;50075;49.484;11.238;2022-11-11T06:25:25;35.22;;;10.05;;
63906;SDS011;50075;49.484;11.238;2022-11-11T06:28:14;38.10;;;11.00;;
63906;SDS011;50075;49.484;11.238;2022-11-11T06:30:41;36.30;;;10.32;;
63906;SDS011;50075;49.484;11.238;2022-11-11T06:33:07;33.33;;;9.88;;
63906;SDS011;50075;49.484;11.238;2022-11-11T06:35:34;32.42;;;9.10;;
63906;SDS011;50075;49.484;11.238;2022-11-11T06:38:00;37.10;;;11.65;;
63906;SDS011;50075;49.484;11.238;2022-11-11T06:40:29;46.03;;;12.98;;
63906;SDS011;50075;49.484;11.238;2022-11-11T06:42:56;28.60;;;8.60;;
63906;SDS011;50075;49.484;11.238;2022-11-11T06:45:22;38.47;;;11.93;;
63906;SDS011;50075;49.484;11.238;2022-11-11T06:47:48;37.22;;;12.77;;
63906;SDS011;50075;49.484;11.238;2022-11-11T06:50:14;38.25;;;12.57;;
63906;SDS011;50075;49.484;11.238;2022-11-11T06:52:40;44.85;;;14.07;;
63906;SDS011;50075;49.484;11.238;2022-11-11T06:55:05;42.47;;;12.63;;
63906;SDS011;50075;49.484;11.238;2022-11-11T06:57:31;35.25;;;13.27;;
63906;SDS011;50075;49.484;11.238;2022-11-11T06:59:56;50.30;;;13.57;;
63906;SDS011;50075;49.484;11.238;2022-11-11T07:02:22;35.80;;;12.10;;
63906;SDS011;50075;49.484;11.238;2022-11-11T07:04:47;35.67;;;11.48;;
63906;SDS011;50075;49.484;11.238;2022-11-11T07:07:12;38.80;;;11.10;;
63906;SDS011;50075;49.484;11.238;2022-11-11T07:09:38;28.63;;;10.65;;
63906;SDS011;50075;49.484;11.238;2022-11-11T07:12:03;44.55;;;12.70;;
63906;SDS011;50075;49.484;11.238;2022-11-11T07:14:30;330.00;;;27.25;;
63906;SDS011;50075;49.484;11.238;2022-11-11T07:16:56;978.72;;;57.38;;
63906;SDS011;50075;49.484;11.238;2022-11-11T07:19:22;1999.90;;;165.07;;
63906;SDS011;50075;49.484;11.238;2022-11-11T07:21:47;162.02;;;15.57;;
63906;SDS011;50075;49.484;11.238;2022-11-11T07:24:13;673.85;;;36.05;;
63906;SDS011;50075;49.484;11.238;2022-11-11T07:26:38;1999.90;;;145.13;;
63906;SDS011;50075;49.484;11.238;2022-11-11T07:29:03;1999.90;;;521.90;;
63906;SDS011;50075;49.484;11.238;2022-11-11T07:31:29;1999.90;;;525.03;;
63906;SDS011;50075;49.484;11.238;2022-11-11T07:33:54;744.17;;;55.55;;
63906;SDS011;50075;49.484;11.238;2022-11-11T07:36:19;894.92;;;46.60;;
63906;SDS011;50075;49.484;11.238;2022-11-11T07:38:45;41.00;;;9.93;;
63906;SDS011;50075;49.484;11.238;2022-11-11T07:41:10;24.08;;;8.85;;
63906;SDS011;50075;49.484;11.238;2022-11-11T07:43:35;27.23;;;8.77;;
63906;SDS011;50075;49.484;11.238;2022-11-11T07:46:01;24.40;;;7.82;;
63906;SDS011;50075;49.484;11.238;2022-11-11T07:48:26;28.00;;;8.48;;
63906;SDS011;50075;49.484;11.238;2022-11-11T07:50:52;29.85;;;8.15;;
63906;SDS011;50075;49.484;11.238;2022-11-11T07:53:24;27.10;;;7.82;;
63906;SDS011;50075;49.484;11.238;2022-11-11T07:55:52;30.13;;;8.10;;
63906;SDS011;50075;49.484;11.238;2022-11-11T07:58:18;24.35;;;8.25;;
63906;SDS011;50075;49.484;11.238;2022-11-11T08:00:43;28.85;;;8.18;;
63906;SDS011;50075;49.484;11.238;2022-11-11T08:03:08;23.65;;;7.65;;
63906;SDS011;50075;49.484;11.238;2022-11-11T08:05:34;29.13;;;8.05;;
63906;SDS011;50075;49.484;11.238;2022-11-11T08:08:05;20.67;;;6.93;;
63906;SDS011;50075;49.484;11.238;2022-11-11T08:12:57;21.75;;;6.97;;
63906;SDS011;50075;49.484;11.238;2022-11-11T08:15:42;24.70;;;7.30;;
63906;SDS011;50075;49.484;11.238;2022-11-11T08:18:07;19.38;;;6.35;;
63906;SDS011;50075;49.484;11.238;2022-11-11T08:20:33;25.50;;;7.93;;
63906;SDS011;50075;49.484;11.238;2022-11-11T08:22:58;22.85;;;7.35;;
63906;SDS011;50075;49.484;11.238;2022-11-11T08:25:24;23.08;;;7.38;;
63906;SDS011;50075;49.484;11.238;2022-11-11T08:27:56;23.98;;;7.40;;
63906;SDS011;50075;49.484;11.238;2022-11-11T08:30:22;27.95;;;7.18;;
63906;SDS011;50075;49.484;11.238;2022-11-11T08:32:48;30.75;;;8.50;;
63906;SDS011;50075;49.484;11.238;2022-11-11T08:35:20;23.90;;;7.28;;
63906;SDS011;50075;49.484;11.238;2022-11-11T08:37:45;23.40;;;7.95;;
63906;SDS011;50075;49.484;11.238;2022-11-11T08:40:10;22.70;;;7.55;;
63906;SDS011;50075;49.484;11.238;2022-11-11T08:42:36;20.17;;;7.45;;
63906;SDS011;50075;49.484;11.238;2022-11-11T08:45:01;20.38;;;6.90;;
63906;SDS011;50075;49.484;11.238;2022-11-11T08:47:27;25.85;;;6.88;;
63906;SDS011;50075;49.484;11.238;2022-11-11T08:49:52;22.67;;;7.05;;
63906;SDS011;50075;49.484;11.238;2022-11-11T08:52:17;19.70;;;6.57;;
63906;SDS011;50075;49.484;11.238;2022-11-11T08:54:43;22.08;;;7.20;;
63906;SDS011;50075;49.484;11.238;2022-11-11T08:57:08;23.80;;;7.32;;
63906;SDS011;50075;49.484;11.238;2022-11-11T08:59:33;19.00;;;6.80;;
63906;SDS011;50075;49.484;11.238;2022-11-11T09:01:59;21.58;;;6.93;;
63906;SDS011;50075;49.484;11.238;2022-11-11T09:04:24;20.33;;;7.03;;
63906;SDS011;50075;49.484;11.238;2022-11-11T09:06:49;22.17;;;7.22;;
63906;SDS011;50075;49.484;11.238;2022-11-11T09:09:15;20.50;;;6.63;;
63906;SDS011;50075;49.484;11.238;2022-11-11T09:11:40;23.08;;;7.20;;
63906;SDS011;50075;49.484;11.238;2022-11-11T09:14:06;18.83;;;6.43;;
63906;SDS011;50075;49.484;11.238;2022-11-11T09:16:31;20.83;;;7.22;;
63906;SDS011;50075;49.484;11.238;2022-11-11T09:18:56;20.75;;;6.90;;
63906;SDS011;50075;49.484;11.238;2022-11-11T09:21:22;23.63;;;7.15;;
63906;SDS011;50075;49.484;11.238;2022-11-11T09:23:48;19.27;;;7.07;;
63906;SDS011;50075;49.484;11.238;2022-11-11T09:26:13;23.02;;;7.20;;
63906;SDS011;50075;49.484;11.238;2022-11-11T09:28:38;18.77;;;6.75;;
63906;SDS011;50075;49.484;11.238;2022-11-11T09:31:04;18.67;;;6.60;;
63906;SDS011;50075;49.484;11.238;2022-11-11T09:33:29;19.67;;;6.95;;
63906;SDS011;50075;49.484;11.238;2022-11-11T09:35:56;20.80;;;7.22;;
63906;SDS011;50075;49.484;11.238;2022-11-11T09:38:22;22.10;;;7.15;;
63906;SDS011;50075;49.484;11.238;2022-11-11T09:40:50;22.95;;;7.00;;
63906;SDS011;50075;49.484;11.238;2022-11-11T09:46:16;17.95;;;6.45;;
63906;SDS011;50075;49.484;11.238;2022-11-11T09:48:57;20.05;;;6.47;;
63906;SDS011;50075;49.484;11.238;2022-11-11T09:54:36;19.10;;;6.80;;
63906;SDS011;50075;49.484;11.238;2022-11-11T09:57:14;18.90;;;6.95;;
63906;SDS011;50075;49.484;11.238;2022-11-11T09:59:50;20.02;;;7.05;;
63906;SDS011;50075;49.484;11.238;2022-11-11T10:02:42;19.88;;;6.88;;
63906;SDS011;50075;49.484;11.238;2022-11-11T10:05:14;19.55;;;6.63;;
63906;SDS011;50075;49.484;11.238;2022-11-11T10:07:44;21.98;;;7.43;;
63906;SDS011;50075;49.484;11.238;2022-11-11T10:10:26;20.77;;;7.30;;
63906;SDS011;50075;49.484;11.238;2022-11-11T10:13:02;20.27;;;6.57;;
63906;SDS011;50075;49.484;11.238;2022-11-11T10:15:34;16.35;;;6.32;;
63906;SDS011;50075;49.484;11.238;2022-11-11T10:18:23;18.85;;;6.55;;
63906;SDS011;50075;49.484;11.238;2022-11-11T10:20:58;21.83;;;7.38;;
63906;SDS011;50075;49.484;11.238;2022-11-11T10:23:31;20.77;;;7.10;;
63906;SDS011;50075;49.484;11.238;2022-11-11T10:26:04;18.67;;;6.20;;
63906;SDS011;50075;49.484;11.238;2022-11-11T10:28:37;15.63;;;6.70;;
63906;SDS011;50075;49.484;11.238;2022-11-11T10:31:12;18.35;;;7.07;;
63906;SDS011;50075;49.484;11.238;2022-11-11T10:33:49;21.42;;;7.00;;
63906;SDS011;50075;49.484;11.238;2022-11-11T10:36:20;18.95;;;7.38;;
63906;SDS011;50075;49.484;11.238;2022-11-11T10:41:21;21.02;;;6.88;;
63906;SDS011;50075;49.484;11.238;2022-11-11T10:43:51;21.70;;;6.80;;
63906;SDS011;50075;49.484;11.238;2022-11-11T10:46:27;19.23;;;6.65;;
63906;SDS011;50075;49.484;11.238;2022-11-11T10:51:30;20.08;;;6.70;;
63906;SDS011;50075;49.484;11.238;2022-11-11T10:54:05;17.65;;;6.00;;
63906;SDS011;50075;49.484;11.238;2022-11-11T10:59:18;17.35;;;6.90;;
63906;SDS011;50075;49.484;11.238;2022-11-11T11:01:51;14.25;;;6.18;;
63906;SDS011;50075;49.484;11.238;2022-11-11T11:07:07;19.30;;;6.30;;
63906;SDS011;50075;49.484;11.238;2022-11-11T11:09:57;16.02;;;5.70;;
63906;SDS011;50075;49.484;11.238;2022-11-11T11:15:15;17.02;;;5.85;;
63906;SDS011;50075;49.484;11.238;2022-11-11T11:20:21;12.15;;;5.13;;
63906;SDS011;50075;49.484;11.238;2022-11-11T11:22:56;15.27;;;6.13;;
63906;SDS011;50075;49.484;11.238;2022-11-11T11:25:27;18.65;;;6.00;;
63906;SDS011;50075;49.484;11.238;2022-11-11T11:28:05;19.23;;;5.72;;
63906;SDS011;50075;49.484;11.238;2022-11-11T11:30:35;22.40;;;5.60;;
63906;SDS011;50075;49.484;11.238;2022-11-11T11:33:02;13.15;;;5.03;;
63906;SDS011;50075;49.484;11.238;2022-11-11T11:38:00;13.30;;;5.00;;
63906;SDS011;50075;49.484;11.238;2022-11-11T11:40:26;12.38;;;4.85;;
63906;SDS011;50075;49.484;11.238;2022-11-11T11:42:52;20.83;;;5.72;;
63906;SDS011;50075;49.484;11.238;2022-11-11T11:45:25;18.00;;;5.40;;
63906;SDS011;50075;49.484;11.238;2022-11-11T11:55:44;13.45;;;4.88;;
63906;SDS011;50075;49.484;11.238;2022-11-11T11:58:20;16.90;;;4.82;;
63906;SDS011;50075;49.484;11.238;2022-11-11T12:01:00;19.83;;;5.13;;
63906;SDS011;50075;49.484;11.238;2022-11-11T12:12:25;16.90;;;4.88;;
63906;SDS011;50075;49.484;11.238;2022-11-11T12:17:58;18.40;;;4.68;;
63906;SDS011;50075;49.484;11.238;2022-11-11T12:20:51;22.00;;;5.15;;
63906;SDS011;50075;49.484;11.238;2022-11-11T12:23:31;15.63;;;4.38;;
63906;SDS011;50075;49.484;11.238;2022-11-11T12:32:26;15.25;;;3.80;;
63906;SDS011;50075;49.484;11.238;2022-11-11T12:37:34;17.17;;;4.10;;
63906;SDS011;50075;49.484;11.238;2022-11-11T12:43:18;19.40;;;4.30;;
63906;SDS011;50075;49.484;11.238;2022-11-11T12:51:39;13.57;;;3.80;;
63906;SDS011;50075;49.484;11.238;2022-11-11T13:17:00;12.70;;;3.72;;
63906;SDS011;50075;49.484;11.238;2022-11-11T13:22:50;16.17;;;3.78;;
63906;SDS011;50075;49.484;11.238;2022-11-11T13:25:19;12.52;;;3.35;;
63906;SDS011;50075;49.484;11.238;2022-11-11T13:33:21;14.63;;;3.70;;
63906;SDS011;50075;49.484;11.238;2022-11-11T13:38:27;10.63;;;3.22;;
63906;SDS011;50075;49.484;11.238;2022-11-11T13:40:56;22.92;;;4.30;;
63906;SDS011;50075;49.484;11.238;2022-11-11T13:43:31;11.90;;;3.70;;
63906;SDS011;50075;49.484;11.238;2022-11-11T13:46:01;16.50;;;3.90;;
63906;SDS011;50075;49.484;11.238;2022-11-11T13:48:43;14.77;;;3.75;;
63906;SDS011;50075;49.484;11.238;2022-11-11T13:53:51;14.35;;;3.38;;
63906;SDS011;50075;49.484;11.238;2022-11-11T13:56:25;41.95;;;7.07;;
63906;SDS011;50075;49.484;11.238;2022-11-11T13:58:51;23.08;;;4.55;;
63906;SDS011;50075;49.484;11.238;2022-11-11T14:01:19;25.60;;;5.55;;
63906;SDS011;50075;49.484;11.238;2022-11-11T14:08:56;18.13;;;4.03;;
63906;SDS011;50075;49.484;11.238;2022-11-11T14:14:43;19.38;;;4.13;;
63906;SDS011;50075;49.484;11.238;2022-11-11T14:21:47;23.58;;;4.65;;
63906;SDS011;50075;49.484;11.238;2022-11-11T14:24:38;23.30;;;4.82;;
63906;SDS011;50075;49.484;11.238;2022-11-11T14:29:37;26.77;;;5.10;;
63906;SDS011;50075;49.484;11.238;2022-11-11T14:37:32;30.35;;;5.10;;
63906;SDS011;50075;49.484;11.238;2022-11-11T14:40:24;26.27;;;4.80;;
63906;SDS011;50075;49.484;11.238;2022-11-11T14:42:54;20.52;;;4.22;;
63906;SDS011;50075;49.484;11.238;2022-11-11T14:47:54;27.08;;;4.80;;
63906;SDS011;50075;49.484;11.238;2022-11-11T14:52:54;29.08;;;5.07;;
63906;SDS011;50075;49.484;11.238;2022-11-11T14:58:09;26.65;;;4.97;;
63906;SDS011;50075;49.484;11.238;2022-11-11T15:00:46;26.83;;;4.90;;
63906;SDS011;50075;49.484;11.238;2022-11-11T15:03:16;22.85;;;4.43;;
63906;SDS011;50075;49.484;11.238;2022-11-11T15:06:04;29.50;;;5.05;;
63906;SDS011;50075;49.484;11.238;2022-11-11T15:30:09;21.42;;;4.22;;
63906;SDS011;50075;49.484;11.238;2022-11-11T15:38:11;29.73;;;5.13;;
63906;SDS011;50075;49.484;11.238;2022-11-11T15:40:49;29.05;;;5.20;;
63906;SDS011;50075;49.484;11.238;2022-11-11T15:43:22;30.30;;;5.38;;
63906;SDS011;50075;49.484;11.238;2022-11-11T15:45:55;22.45;;;4.18;;
63906;SDS011;50075;49.484;11.238;2022-11-11T15:48:31;24.35;;;4.68;;
63906;SDS011;50075;49.484;11.238;2022-11-11T15:51:13;37.77;;;6.10;;
63906;SDS011;50075;49.484;11.238;2022-11-11T15:53:45;28.20;;;4.78;;
63906;SDS011;50075;49.484;11.238;2022-11-11T15:56:11;26.23;;;5.00;;
63906;SDS011;50075;49.484;11.238;2022-11-11T15:58:36;29.55;;;5.32;;
63906;SDS011;50075;49.484;11.238;2022-11-11T16:01:03;27.38;;;5.40;;
63906;SDS011;50075;49.484;11.238;2022-11-11T16:03:32;23.35;;;4.95;;
63906;SDS011;50075;49.484;11.238;2022-11-11T16:06:06;24.70;;;5.22;;
63906;SDS011;50075;49.484;11.238;2022-11-11T16:08:36;35.00;;;6.60;;
63906;SDS011;50075;49.484;11.238;2022-11-11T16:11:05;25.40;;;6.47;;
63906;SDS011;50075;49.484;11.238;2022-11-11T16:13:39;27.40;;;6.43;;
63906;SDS011;50075;49.484;11.238;2022-11-11T16:16:11;21.58;;;5.95;;
63906;SDS011;50075;49.484;11.238;2022-11-11T16:18:54;34.10;;;8.63;;
63906;SDS011;50075;49.484;11.238;2022-11-11T16:21:26;27.05;;;6.68;;
63906;SDS011;50075;49.484;11.238;2022-11-11T16:23:53;25.77;;;7.57;;
63906;SDS011;50075;49.484;11.238;2022-11-11T16:26:21;29.67;;;8.07;;
63906;SDS011;50075;49.484;11.238;2022-11-11T16:28:47;38.22;;;9.57;;
63906;SDS011;50075;49.484;11.238;2022-11-11T16:34:00;32.78;;;7.53;;
63906;SDS011;50075;49.484;11.238;2022-11-11T16:39:29;30.00;;;7.72;;
63906;SDS011;50075;49.484;11.238;2022-11-11T16:41:55;35.58;;;8.65;;
63906;SDS011;50075;49.484;11.238;2022-11-11T16:44:32;31.60;;;7.88;;
63906;SDS011;50075;49.484;11.238;2022-11-11T16:47:02;28.25;;;9.05;;
63906;SDS011;50075;49.484;11.238;2022-11-11T16:49:34;31.33;;;7.85;;
63906;SDS011;50075;49.484;11.238;2022-11-11T16:54:33;36.72;;;9.43;;
63906;SDS011;50075;49.484;11.238;2022-11-11T16:57:04;33.87;;;9.27;;
63906;SDS011;50075;49.484;11.238;2022-11-11T16:59:38;29.85;;;8.07;;
63906;SDS011;50075;49.484;11.238;2022-11-11T17:02:17;32.38;;;7.45;;
63906;SDS011;50075;49.484;11.238;2022-11-11T17:04:48;39.28;;;9.43;;
63906;SDS011;50075;49.484;11.238;2022-11-11T17:07:28;38.15;;;9.75;;
63906;SDS011;50075;49.484;11.238;2022-11-11T17:12:33;38.80;;;9.82;;
63906;SDS011;50075;49.484;11.238;2022-11-11T17:15:01;32.05;;;8.52;;
63906;SDS011;50075;49.484;11.238;2022-11-11T17:17:30;39.35;;;9.15;;
63906;SDS011;50075;49.484;11.238;2022-11-11T17:19:56;39.10;;;8.95;;
63906;SDS011;50075;49.484;11.238;2022-11-11T17:22:24;33.05;;;8.35;;
63906;SDS011;50075;49.484;11.238;2022-11-11T17:24:50;25.65;;;8.88;;
63906;SDS011;50075;49.484;11.238;2022-11-11T17:27:15;34.38;;;8.77;;
63906;SDS011;50075;49.484;11.238;2022-11-11T17:29:41;32.72;;;9.60;;